createdAt,value
2022-10-19T00:02:50.976Z,99408.13
2022-10-19T00:05:52.750Z,99398.28
2022-10-19T00:08:56.374Z,99390.41
2022-10-19T00:11:58.227Z,99384.69
2022-10-19T00:15:00.260Z,99384.38
2022-10-19T00:18:02.039Z,99376.50
2022-10-19T00:21:08.230Z,99371.31
2022-10-19T00:24:10.393Z,99362.44
2022-10-19T00:27:12.175Z,99357.09
2022-10-19T00:30:14.134Z,99352.06
2022-10-19T00:33:21.136Z,99342.53
2022-10-19T00:36:27.264Z,99341.38
2022-10-19T00:39:29.009Z,99328.16
2022-10-19T00:42:30.967Z,99335.19
2022-10-19T00:45:33.192Z,99328.31
2022-10-19T00:48:35.030Z,99321.97
2022-10-19T00:51:40.988Z,99317.59
2022-10-19T00:54:45.815Z,99315.59
2022-10-19T00:57:47.818Z,99302.56
2022-10-19T01:00:49.707Z,99304.38
2022-10-19T01:03:51.443Z,99301.72
2022-10-19T01:06:54.316Z,99293.34
2022-10-19T01:09:56.134Z,99287.66
2022-10-19T01:13:19.709Z,99285.81
2022-10-19T01:16:31.579Z,99278.81
2022-10-19T01:19:57.922Z,99272.63
2022-10-19T01:23:17.845Z,99266.75
2022-10-19T01:26:36.319Z,99261.41
2022-10-19T01:29:56.762Z,99268.91
2022-10-19T01:33:21.050Z,99261.88
2022-10-19T01:36:27.339Z,99249.00
2022-10-19T01:40:24.812Z,99241.13
2022-10-19T01:43:32.476Z,99234.59
2022-10-19T01:46:39.681Z,99234.75
2022-10-19T01:49:43.376Z,99229.41
2022-10-19T01:52:45.157Z,99219.19
2022-10-19T01:55:51.268Z,99226.69
2022-10-19T01:58:56.553Z,99223.34
2022-10-19T02:01:58.823Z,99220.81
2022-10-19T02:05:03.311Z,99209.44
2022-10-19T02:08:11.602Z,99203.41
2022-10-19T02:11:13.390Z,99204.41
2022-10-19T02:14:18.789Z,99198.41
2022-10-19T02:17:29.578Z,99196.50
2022-10-19T02:20:31.403Z,99194.88
2022-10-19T02:23:33.446Z,99194.72
2022-10-19T02:26:35.496Z,99192.84
2022-10-19T02:29:38.727Z,99182.16
2022-10-19T02:32:41.119Z,99177.44
2022-10-19T02:35:43.313Z,99174.63
2022-10-19T02:38:45.318Z,99178.28
2022-10-19T02:42:27.683Z,99176.09
2022-10-19T02:45:33.100Z,99167.88
2022-10-19T02:48:36.452Z,99164.22
2022-10-19T02:51:54.597Z,99165.03
2022-10-19T02:54:56.441Z,99144.97
2022-10-19T02:57:58.222Z,99138.28
2022-10-19T03:01:00.027Z,99131.06
2022-10-19T03:04:01.771Z,99128.75
2022-10-19T03:07:03.600Z,99120.06
2022-10-19T03:10:05.854Z,99113.88
2022-10-19T03:13:07.720Z,99111.22
2022-10-19T03:16:11.447Z,99105.19
2022-10-19T03:19:13.385Z,99104.34
2022-10-19T03:22:15.389Z,99092.16
2022-10-19T03:25:17.141Z,99075.44
2022-10-19T03:28:18.906Z,99083.47
2022-10-19T03:31:20.830Z,99076.09
2022-10-19T03:34:22.639Z,99067.28
2022-10-19T03:37:24.501Z,99048.22
2022-10-19T03:40:26.282Z,99052.06
2022-10-19T03:43:28.048Z,99045.88
2022-10-19T03:46:29.893Z,99036.16
2022-10-19T03:49:32.382Z,99026.63
2022-10-19T03:52:35.469Z,99031.97
2022-10-19T03:55:37.217Z,99028.63
2022-10-19T03:58:40.249Z,99016.59
2022-10-19T04:01:46.364Z,99016.59
2022-10-19T04:04:48.117Z,99007.91
2022-10-19T04:07:49.949Z,99006.38
2022-10-19T04:10:51.664Z,99000.88
2022-10-19T04:13:55.066Z,98995.38
2022-10-19T04:16:56.862Z,98988.38
2022-10-19T04:19:58.622Z,98984.03
2022-10-19T04:23:00.375Z,98980.53
2022-10-19T04:26:03.720Z,98975.19
2022-10-19T04:29:05.599Z,98975.69
2022-10-19T04:32:07.519Z,98970.53
2022-10-19T04:35:09.535Z,98964.03
2022-10-19T04:38:11.299Z,98962.34
2022-10-19T04:41:15.756Z,98972.19
2022-10-19T04:44:17.597Z,98973.19
2022-10-19T04:47:19.392Z,98980.03
2022-10-19T04:50:21.163Z,98976.88
2022-10-19T04:53:26.316Z,98972.06
2022-10-19T04:56:28.926Z,98971.22
2022-10-19T04:59:30.733Z,98968.94
2022-10-19T05:02:32.624Z,98967.63
2022-10-19T05:05:34.592Z,98966.44
2022-10-19T05:08:37.583Z,98957.59
2022-10-19T05:11:39.367Z,98952.63
2022-10-19T05:14:42.829Z,98958.34
2022-10-19T05:17:44.937Z,98958.84
2022-10-19T05:20:46.790Z,98951.50
2022-10-19T05:23:52.452Z,98949.00
2022-10-19T05:26:54.200Z,98948.16
2022-10-19T05:29:56.653Z,98934.13
2022-10-19T05:32:58.657Z,98940.47
2022-10-19T05:36:00.446Z,98934.63
2022-10-19T05:39:14.001Z,98933.63
2022-10-19T05:42:15.784Z,98941.78
2022-10-19T05:45:17.574Z,98930.22
2022-10-19T05:48:19.439Z,98919.84
2022-10-19T05:51:22.158Z,98930.69
2022-10-19T05:54:26.386Z,98915.63
2022-10-19T05:57:32.455Z,98897.34
2022-10-19T06:00:34.412Z,98895.28
2022-10-19T06:03:36.657Z,98892.19
2022-10-19T06:06:38.426Z,98882.06
2022-10-19T06:09:40.203Z,98864.97
2022-10-19T06:12:42.158Z,98867.00
2022-10-19T06:15:44.206Z,98853.91
2022-10-19T06:18:46.363Z,98844.97
2022-10-19T06:21:48.151Z,98838.25
2022-10-19T06:24:50.038Z,98849.16
2022-10-19T06:27:51.786Z,98857.22
2022-10-19T06:30:53.772Z,98845.09
2022-10-19T06:33:56.160Z,98841.09
2022-10-19T06:36:58.104Z,98842.88
2022-10-19T06:40:02.489Z,98840.75
2022-10-19T06:43:08.974Z,98834.63
2022-10-19T06:46:15.729Z,98832.13
2022-10-19T06:49:18.545Z,98820.16
2022-10-19T06:52:20.321Z,98825.72
2022-10-19T06:55:22.367Z,98816.28
2022-10-19T06:58:28.588Z,98805.53
2022-10-19T07:01:30.697Z,98791.03
2022-10-19T07:04:32.471Z,98799.75
2022-10-19T07:07:35.190Z,98797.06
2022-10-19T07:10:36.986Z,98795.81
2022-10-19T07:13:39.222Z,98792.84
2022-10-19T07:16:40.988Z,98785.94
2022-10-19T07:19:42.985Z,98794.75
2022-10-19T07:22:44.777Z,98788.19
2022-10-19T07:25:46.572Z,98782.44
2022-10-19T07:28:49.195Z,98784.72
2022-10-19T07:31:51.108Z,98794.50
2022-10-19T07:34:52.875Z,98790.34
2022-10-19T10:26:17.877Z,98694.16
2022-10-19T10:29:25.664Z,98697.16
2022-10-19T10:32:28.659Z,98683.84
2022-10-19T10:35:37.246Z,98690.94
2022-10-19T10:38:47.133Z,98695.00
2022-10-19T10:41:49.139Z,98686.81
2022-10-19T10:44:53.511Z,98685.81
2022-10-19T10:47:56.786Z,98705.72
2022-10-19T10:51:00.980Z,98701.16
2022-10-19T10:54:14.991Z,98699.19
2022-10-19T11:00:29.535Z,98693.63
2022-10-19T11:03:33.263Z,98694.28
2022-10-19T11:06:47.516Z,98691.19
2022-10-19T11:09:53.968Z,98682.41
2022-10-19T11:13:10.385Z,98677.22
2022-10-19T11:16:16.241Z,98663.06
2022-10-19T11:19:35.112Z,98669.81
2022-10-19T11:23:02.128Z,98673.41
2022-10-19T11:26:39.493Z,98671.78
2022-10-19T11:30:30.190Z,98673.56
2022-10-19T11:33:45.827Z,98681.91
2022-10-19T11:36:53.580Z,98665.69
2022-10-19T11:40:14.203Z,98666.31
2022-10-19T11:43:37.843Z,98659.50
2022-10-19T11:46:54.101Z,98655.34
2022-10-19T11:50:25.043Z,98670.50
2022-10-19T11:53:34.688Z,98675.28
2022-10-19T11:57:03.212Z,98681.75
2022-10-19T12:00:15.356Z,98696.91
2022-10-19T12:03:44.520Z,98704.91
2022-10-19T12:06:49.137Z,98708.03
2022-10-19T12:10:20.004Z,98696.22
2022-10-19T12:13:33.410Z,98704.66
2022-10-19T12:16:41.824Z,98711.47
2022-10-19T12:19:49.360Z,98715.91
2022-10-19T12:22:51.415Z,98715.84
2022-10-19T12:25:56.840Z,98718.41
2022-10-19T12:29:13.205Z,98707.59
2022-10-19T12:32:19.377Z,98715.63
2022-10-19T12:35:48.236Z,98710.19
2022-10-19T12:39:00.210Z,98697.13
2022-10-19T12:42:14.045Z,98709.84
2022-10-19T12:45:52.091Z,98705.47
2022-10-19T12:49:30.780Z,98707.47
2022-10-19T12:52:37.716Z,98703.09
2022-10-19T12:55:42.351Z,98702.28
2022-10-19T12:59:01.666Z,98707.22
2022-10-19T13:02:06.740Z,98684.97
2022-10-19T13:05:19.411Z,98693.03
2022-10-19T13:08:29.870Z,98699.00
2022-10-19T13:11:32.356Z,98685.63
2022-10-19T13:14:52.236Z,98674.09
2022-10-19T13:17:54.064Z,98684.34
2022-10-19T13:20:55.951Z,98695.47
2022-10-19T13:24:20.583Z,98692.41
2022-10-19T13:27:26.509Z,98701.16
2022-10-19T13:30:41.942Z,98708.38
2022-10-19T13:33:47.405Z,98711.47
2022-10-19T13:37:03.144Z,98714.13
2022-10-19T13:40:23.671Z,98727.56
2022-10-19T13:43:34.655Z,98724.69
2022-10-19T13:47:08.090Z,98721.63
2022-10-19T13:50:15.690Z,98711.19
2022-10-19T13:53:30.678Z,98711.28
2022-10-19T13:56:47.427Z,98703.78
2022-10-19T14:00:01.951Z,98700.97
2022-10-19T14:03:40.780Z,98701.34
2022-10-19T14:06:54.995Z,98695.53
2022-10-19T14:10:08.531Z,98698.84
2022-10-19T14:13:14.678Z,98699.16
2022-10-19T14:16:21.703Z,98694.25
2022-10-19T14:19:33.784Z,98694.44
2022-10-19T14:22:36.396Z,98701.38
2022-10-19T14:25:38.346Z,98693.63
2022-10-19T14:28:41.249Z,98698.81
2022-10-19T14:31:43.336Z,98701.41
2022-10-19T14:34:47.228Z,98707.34
2022-10-19T14:37:49.738Z,98710.88
2022-10-19T14:40:51.830Z,98703.00
2022-10-19T14:43:56.892Z,98690.16
2022-10-19T14:47:01.296Z,98690.34
2022-10-19T14:50:03.974Z,98674.50
2022-10-19T14:54:01.269Z,98671.88
2022-10-19T14:57:12.945Z,98685.31
2022-10-19T15:00:18.834Z,98697.19
2022-10-19T15:03:27.975Z,98678.78
2022-10-19T15:06:32.615Z,98677.56
2022-10-19T15:09:48.785Z,98687.66
2022-10-19T15:12:52.799Z,98698.13
2022-10-19T15:15:55.691Z,98686.56
2022-10-19T15:19:03.070Z,98693.41
2022-10-19T15:22:29.362Z,98690.56
2022-10-19T15:25:36.912Z,98687.88
2022-10-19T15:28:41.563Z,98682.50
2022-10-19T15:31:43.814Z,98681.41
2022-10-19T15:34:46.237Z,98686.03
2022-10-19T15:37:50.209Z,98686.78
2022-10-19T15:41:01.161Z,98679.09
2022-10-19T15:44:05.070Z,98690.66
2022-10-19T15:47:16.419Z,98699.91
2022-10-19T15:50:36.658Z,98686.97
2022-10-19T15:53:38.449Z,98683.25
2022-10-19T15:56:40.546Z,98690.22
2022-10-19T15:59:42.377Z,98698.63
2022-10-19T16:02:44.638Z,98698.06
2022-10-19T16:05:47.242Z,98692.25
2022-10-19T16:08:51.186Z,98700.03
2022-10-19T16:11:57.016Z,98690.03
2022-10-19T16:14:58.785Z,98690.13
2022-10-19T16:18:00.816Z,98693.81
2022-10-19T16:21:02.735Z,98691.25
2022-10-19T16:24:04.985Z,98694.47
2022-10-19T16:27:07.797Z,98691.44
2022-10-19T16:30:10.384Z,98678.00
2022-10-19T16:33:12.508Z,98680.50
2022-10-19T16:36:14.680Z,98678.00
2022-10-19T16:39:16.570Z,98676.34
2022-10-19T16:42:18.510Z,98670.16
2022-10-19T16:45:20.372Z,98668.31
2022-10-19T16:48:24.176Z,98671.81
2022-10-19T16:51:44.024Z,98673.03
2022-10-19T16:54:45.790Z,98675.44
2022-10-19T16:57:47.588Z,98658.69
2022-10-19T17:00:49.458Z,98665.44
2022-10-19T17:03:51.636Z,98665.16
2022-10-19T17:06:53.470Z,98659.53
2022-10-19T17:09:55.374Z,98652.03
2022-10-19T17:12:57.211Z,98652.88
2022-10-19T17:16:04.125Z,98664.81
2022-10-19T17:19:13.386Z,98663.50
2022-10-19T17:22:18.193Z,98654.34
2022-10-19T17:25:20.355Z,98653.06
2022-10-19T17:28:24.177Z,98655.09
2022-10-19T17:31:29.679Z,98653.44
2022-10-19T17:34:31.689Z,98651.47
2022-10-19T17:37:33.761Z,98643.44
2022-10-19T17:40:35.783Z,98644.47
2022-10-19T17:43:39.833Z,98633.09
2022-10-19T17:46:41.765Z,98641.31
2022-10-19T17:49:43.641Z,98649.16
2022-10-19T17:52:45.467Z,98637.81
2022-10-19T17:55:50.421Z,98626.44
2022-10-19T17:58:52.665Z,98622.75
2022-10-19T18:01:54.837Z,98623.75
2022-10-19T18:04:56.640Z,98636.53
2022-10-19T18:07:59.855Z,98627.66
2022-10-19T18:11:07.363Z,98626.84
2022-10-19T18:14:11.120Z,98622.69
2022-10-19T18:17:12.975Z,98628.22
2022-10-19T18:20:14.818Z,98617.69
2022-10-19T18:23:17.061Z,98619.06
2022-10-19T18:26:22.183Z,98615.91
2022-10-19T18:29:26.622Z,98616.28
2022-10-19T18:32:28.520Z,98613.47
2022-10-19T18:35:30.641Z,98606.63
2022-10-19T18:38:32.715Z,98612.53
2022-10-19T18:41:34.813Z,98615.75
2022-10-19T18:44:36.748Z,98609.66
2022-10-19T18:47:38.635Z,98604.38
2022-10-19T18:50:40.529Z,98605.09
2022-10-19T18:53:43.330Z,98596.47
2022-10-19T18:56:57.461Z,98595.00
2022-10-19T18:59:59.542Z,98604.94
2022-10-19T19:03:01.805Z,98610.50
2022-10-19T19:06:09.534Z,98604.56
2022-10-19T19:09:12.860Z,98616.81
2022-10-19T19:12:15.955Z,98615.00
2022-10-19T19:15:18.377Z,98614.41
2022-10-19T19:18:20.224Z,98615.47
2022-10-19T19:21:26.890Z,98613.66
2022-10-19T19:24:31.634Z,98614.53
2022-10-19T19:27:33.668Z,98604.72
2022-10-19T19:30:43.752Z,98603.09
2022-10-19T19:33:47.064Z,98606.63
2022-10-19T19:36:49.216Z,98601.31
2022-10-19T19:39:51.134Z,98606.84
2022-10-19T19:42:52.965Z,98603.56
2022-10-19T19:46:03.172Z,98602.91
2022-10-19T19:49:08.477Z,98605.56
2022-10-19T19:52:10.368Z,98611.56
2022-10-19T19:55:12.166Z,98606.22
2022-10-19T19:58:15.662Z,98607.41
2022-10-19T20:01:20.717Z,98611.91
2022-10-19T20:04:22.531Z,98600.22
2022-10-19T20:07:26.904Z,98606.22
2022-10-19T20:10:28.859Z,98605.41
2022-10-19T20:13:31.398Z,98605.41
2022-10-19T20:16:33.632Z,98605.56
2022-10-19T20:19:35.513Z,98595.72
2022-10-19T20:22:38.572Z,98595.72
2022-10-19T20:25:40.371Z,98596.91
2022-10-19T20:28:42.145Z,98596.06
2022-10-19T20:31:43.870Z,98592.72
2022-10-19T20:34:45.672Z,98597.06
2022-10-19T20:37:50.685Z,98599.25
2022-10-19T20:40:54.568Z,98587.06
2022-10-19T20:43:56.923Z,98590.56
2022-10-19T20:46:58.749Z,98604.91
2022-10-19T20:50:00.571Z,98599.06
2022-10-19T20:53:02.564Z,98586.06
2022-10-19T20:56:09.497Z,98584.19
2022-10-19T20:59:14.645Z,98590.72
2022-10-19T21:02:16.588Z,98588.38
2022-10-19T21:05:18.357Z,98579.19
2022-10-19T21:08:20.725Z,98590.34
2022-10-19T21:11:25.011Z,98577.81
2022-10-19T21:14:29.258Z,98585.00
2022-10-19T21:20:37.918Z,98560.66
2022-10-19T21:23:40.231Z,98565.84
2022-10-19T21:26:42.694Z,98556.66
2022-10-19T21:29:45.336Z,98563.50
2022-10-19T21:32:47.774Z,98560.03
2022-10-19T21:38:52.323Z,98550.22
2022-10-19T21:41:54.208Z,98545.22
2022-10-19T21:45:06.221Z,98531.38
2022-10-19T21:48:08.107Z,98536.38
2022-10-19T21:51:28.244Z,98530.06
2022-10-19T21:54:30.206Z,98522.75
2022-10-19T21:57:32.075Z,98521.25
2022-10-19T22:00:33.916Z,98511.75
2022-10-19T22:03:36.180Z,98513.09
2022-10-19T22:06:38.022Z,98516.75
2022-10-19T22:09:39.780Z,98514.78
2022-10-19T22:12:41.608Z,98511.28
2022-10-19T22:15:43.603Z,98505.78
2022-10-19T22:18:46.032Z,98506.78
2022-10-19T22:21:47.794Z,98503.47
2022-10-19T22:24:49.539Z,98502.13
2022-10-19T22:27:51.280Z,98497.47
2022-10-19T22:30:57.417Z,98496.13
2022-10-19T22:34:08.872Z,98502.63
2022-10-19T22:37:10.696Z,98496.81
2022-10-19T22:40:13.247Z,98497.47
2022-10-19T22:43:15.028Z,98499.97
2022-10-19T22:46:16.942Z,98502.97
2022-10-19T22:49:18.903Z,98500.47
2022-10-19T22:52:20.681Z,98500.47
2022-10-19T22:55:22.517Z,98503.44
2022-10-19T22:58:24.260Z,98501.13
2022-10-19T23:01:26.280Z,98504.09
2022-10-19T23:04:28.199Z,98507.09
2022-10-19T23:07:30.012Z,98488.94
2022-10-19T23:10:32.784Z,98494.94
2022-10-19T23:13:34.611Z,98498.09
2022-10-19T23:16:36.410Z,98495.41
2022-10-19T23:19:38.203Z,98491.75
2022-10-19T23:22:40.832Z,98494.59
2022-10-19T23:25:42.619Z,98488.75
2022-10-19T23:28:46.037Z,98493.44
2022-10-19T23:31:48.645Z,98484.09
2022-10-19T23:34:50.521Z,98492.44
2022-10-19T23:37:52.371Z,98490.78
2022-10-19T23:40:54.204Z,98493.28
2022-10-19T23:43:56.065Z,98488.59
2022-10-19T23:46:57.801Z,98492.09
2022-10-19T23:49:59.687Z,98487.59
2022-10-19T23:53:01.570Z,98487.59
2022-10-19T23:56:14.820Z,98478.44
2022-10-19T23:59:16.685Z,98484.75
